METAR Data
IDs: Format: Raw Decoded Include TAF

Data at: 0403 UTC 30 Jun 2022

KSWF 300245Z 00000KT 10SM SKC 20/15 A3017